createdAt,value
2023-02-27T00:00:29.851Z,5
2023-02-27T00:01:29.854Z,5
2023-02-27T00:02:29.881Z,6
2023-02-27T00:03:29.868Z,6
2023-02-27T00:04:29.929Z,6
2023-02-27T00:05:29.859Z,5
2023-02-27T00:06:29.853Z,3
2023-02-27T00:07:29.851Z,5
2023-02-27T00:08:29.891Z,5
2023-02-27T00:09:29.857Z,7
2023-02-27T00:10:29.853Z,5
2023-02-27T00:11:30.092Z,5
2023-02-27T00:12:29.857Z,5
2023-02-27T00:13:29.873Z,5
2023-02-27T00:14:29.917Z,3
2023-02-27T00:15:29.851Z,7
2023-02-27T00:16:29.917Z,3
2023-02-27T00:17:29.885Z,4
2023-02-27T00:18:29.855Z,5
2023-02-27T00:19:29.855Z,4
2023-02-27T00:20:29.854Z,4
2023-02-27T00:21:29.860Z,3
2023-02-27T00:23:29.852Z,7
2023-02-27T00:24:29.834Z,5
2023-02-27T00:25:29.847Z,4
2023-02-27T00:26:29.844Z,7
2023-02-27T00:27:29.848Z,5
2023-02-27T00:28:29.847Z,6
2023-02-27T00:29:29.860Z,8
2023-02-27T00:30:29.899Z,9
2023-02-27T00:31:30.133Z,3
2023-02-27T00:32:29.853Z,4
2023-02-27T00:33:29.837Z,3
2023-02-27T00:34:29.864Z,3
2023-02-27T00:35:29.841Z,5
2023-02-27T00:36:29.841Z,3
2023-02-27T00:37:29.841Z,3
2023-02-27T00:38:29.846Z,4
2023-02-27T00:39:29.939Z,5
2023-02-27T00:40:29.843Z,3
2023-02-27T00:41:29.845Z,7
2023-02-27T00:42:29.842Z,7
2023-02-27T00:43:29.845Z,4
2023-02-27T00:44:29.868Z,3
2023-02-27T00:45:29.840Z,6
2023-02-27T00:46:29.898Z,6
2023-02-27T00:47:29.842Z,7
2023-02-27T00:48:29.840Z,5
2023-02-27T00:49:29.829Z,4
2023-02-27T00:51:29.843Z,3
2023-02-27T00:52:29.850Z,3
2023-02-27T00:53:29.840Z,4
2023-02-27T00:54:29.826Z,4
2023-02-27T00:55:29.828Z,5
2023-02-27T00:56:29.829Z,4
2023-02-27T00:57:29.872Z,7
2023-02-27T00:58:29.833Z,5
2023-02-27T00:59:29.826Z,4
2023-02-27T01:00:29.957Z,4
2023-02-27T01:02:29.881Z,3
2023-02-27T01:04:29.837Z,6
2023-02-27T01:05:29.842Z,4
2023-02-27T01:06:29.824Z,6
2023-02-27T01:07:29.834Z,6
2023-02-27T01:08:29.865Z,6
2023-02-27T01:09:29.842Z,5
2023-02-27T01:10:29.857Z,6
2023-02-27T01:11:29.859Z,4
2023-02-27T01:12:29.833Z,9
2023-02-27T01:13:29.835Z,3
2023-02-27T01:14:29.833Z,6
2023-02-27T01:16:29.910Z,5
2023-02-27T01:17:29.847Z,4
2023-02-27T01:18:29.858Z,3
2023-02-27T01:21:29.854Z,8
2023-02-27T01:22:29.867Z,5
2023-02-27T01:23:29.830Z,5
2023-02-27T01:24:29.837Z,6
2023-02-27T01:25:29.839Z,4
2023-02-27T01:26:29.841Z,6
2023-02-27T01:27:29.863Z,4
2023-02-27T01:28:29.849Z,5
2023-02-27T01:29:29.833Z,7
2023-02-27T01:30:29.863Z,6
2023-02-27T01:31:30.099Z,8
2023-02-27T01:32:29.860Z,5
2023-02-27T01:33:29.839Z,8
2023-02-27T01:34:29.836Z,4
2023-02-27T01:35:29.833Z,7
2023-02-27T01:36:29.831Z,5
2023-02-27T01:37:29.821Z,5
2023-02-27T01:38:29.920Z,3
2023-02-27T01:39:29.828Z,4
2023-02-27T01:40:29.850Z,5
2023-02-27T01:41:29.831Z,7
2023-02-27T01:42:29.921Z,4
2023-02-27T01:44:29.827Z,5
2023-02-27T01:45:29.882Z,5
2023-02-27T01:46:29.846Z,5
2023-02-27T01:47:29.909Z,3
2023-02-27T01:48:29.827Z,6
2023-02-27T01:49:29.835Z,6
2023-02-27T01:50:29.838Z,8
2023-02-27T01:51:29.834Z,9
2023-02-27T01:52:29.833Z,9
2023-02-27T01:53:29.824Z,9
2023-02-27T01:54:29.824Z,5
2023-02-27T01:55:29.829Z,8
2023-02-27T01:56:29.831Z,6
2023-02-27T01:57:29.830Z,7
2023-02-27T01:58:29.822Z,9
2023-02-27T01:59:29.830Z,4
2023-02-27T02:01:30.053Z,9
2023-02-27T02:02:29.934Z,6
2023-02-27T02:03:29.832Z,8
2023-02-27T02:04:29.860Z,5
2023-02-27T02:05:29.834Z,10
2023-02-27T02:06:29.827Z,4
2023-02-27T02:07:29.829Z,9
2023-02-27T02:08:29.834Z,10
2023-02-27T02:09:29.835Z,6
2023-02-27T02:10:29.824Z,23
2023-02-27T02:11:29.816Z,19
2023-02-27T02:12:29.827Z,16
2023-02-27T02:13:29.831Z,17
2023-02-27T02:14:29.829Z,15
2023-02-27T02:15:29.829Z,16
2023-02-27T02:16:29.873Z,26
2023-02-27T02:17:29.825Z,18
2023-02-27T02:18:29.828Z,19
2023-02-27T02:19:29.828Z,22
2023-02-27T02:20:29.831Z,11
2023-02-27T02:21:29.823Z,9
2023-02-27T02:23:29.815Z,11
2023-02-27T02:24:29.824Z,9
2023-02-27T02:25:29.832Z,7
2023-02-27T02:26:33.178Z,6
2023-02-27T02:27:29.829Z,6
2023-02-27T02:28:29.825Z,10
2023-02-27T02:29:29.814Z,10
2023-02-27T02:30:29.914Z,7
2023-02-27T02:31:30.445Z,9
2023-02-27T02:32:29.906Z,6
2023-02-27T02:33:29.864Z,8
2023-02-27T02:34:29.826Z,9
2023-02-27T02:35:29.834Z,6
2023-02-27T02:36:29.814Z,8
2023-02-27T02:37:29.829Z,8
2023-02-27T02:38:29.842Z,11
2023-02-27T02:39:29.827Z,7
2023-02-27T02:40:29.824Z,10
2023-02-27T02:41:29.820Z,7
2023-02-27T02:42:29.818Z,11
2023-02-27T02:43:29.821Z,18
2023-02-27T02:44:29.817Z,8
2023-02-27T02:45:29.823Z,11
2023-02-27T02:46:29.828Z,7
2023-02-27T02:47:29.819Z,11
2023-02-27T02:48:29.822Z,9
2023-02-27T02:49:29.821Z,11
2023-02-27T02:50:29.812Z,10
2023-02-27T02:51:29.831Z,10
2023-02-27T02:52:29.836Z,9
2023-02-27T02:53:36.582Z,9
2023-02-27T02:54:29.876Z,10
2023-02-27T02:55:29.815Z,4
2023-02-27T02:56:29.855Z,6
2023-02-27T02:57:29.830Z,7
2023-02-27T02:59:29.812Z,3
2023-02-27T03:00:29.832Z,5
2023-02-27T03:01:30.194Z,8
2023-02-27T03:02:29.816Z,9
2023-02-27T03:03:29.841Z,7
2023-02-27T03:05:29.830Z,10
2023-02-27T03:06:29.807Z,8
2023-02-27T03:07:29.850Z,12
2023-02-27T03:08:29.823Z,11
2023-02-27T03:09:29.820Z,18
2023-02-27T03:10:29.839Z,9
2023-02-27T03:11:29.813Z,13
2023-02-27T03:12:29.819Z,5
2023-02-27T03:13:29.807Z,8
2023-02-27T03:14:29.818Z,6
2023-02-27T03:15:29.863Z,11
2023-02-27T03:16:29.816Z,11
2023-02-27T03:17:29.807Z,5
2023-02-27T03:19:29.805Z,11
2023-02-27T03:20:29.850Z,6
2023-02-27T03:21:29.887Z,5
2023-02-27T03:22:29.802Z,8
2023-02-27T03:23:29.812Z,10
2023-02-27T03:24:29.814Z,7
2023-02-27T03:26:29.803Z,6
2023-02-27T03:27:29.807Z,4
2023-02-27T03:28:29.810Z,4
2023-02-27T03:29:29.801Z,4
2023-02-27T03:30:29.817Z,6
2023-02-27T03:31:30.343Z,6
2023-02-27T03:32:29.841Z,5
2023-02-27T03:33:29.806Z,4
2023-02-27T03:34:29.807Z,9
2023-02-27T03:35:29.808Z,9
2023-02-27T03:36:29.804Z,6
2023-02-27T03:37:29.809Z,5
2023-02-27T03:38:29.793Z,9
2023-02-27T03:39:29.806Z,13
2023-02-27T03:40:29.811Z,8
2023-02-27T03:41:29.865Z,10
2023-02-27T03:42:29.800Z,10
2023-02-27T03:43:29.799Z,8
2023-02-27T03:44:29.802Z,7
2023-02-27T03:45:29.857Z,6
2023-02-27T03:46:29.827Z,8
2023-02-27T03:47:29.799Z,8
2023-02-27T03:48:29.807Z,9
2023-02-27T03:49:29.821Z,6
2023-02-27T03:50:29.797Z,8
2023-02-27T03:51:29.989Z,5
2023-02-27T03:52:29.804Z,7
2023-02-27T03:53:29.803Z,5
2023-02-27T03:54:29.806Z,6
2023-02-27T03:55:29.793Z,8
2023-02-27T03:56:29.795Z,4
2023-02-27T03:57:29.791Z,3
2023-02-27T03:58:29.806Z,5
2023-02-27T03:59:29.792Z,7
2023-02-27T04:00:29.798Z,10
2023-02-27T04:01:30.147Z,6
2023-02-27T04:02:29.875Z,4
2023-02-27T04:03:29.812Z,6
2023-02-27T04:04:29.784Z,5
2023-02-27T04:05:29.794Z,6
2023-02-27T04:06:29.795Z,10
2023-02-27T04:07:29.807Z,8
2023-02-27T04:08:29.860Z,9
2023-02-27T04:09:29.816Z,8
2023-02-27T04:10:29.799Z,8
2023-02-27T04:11:29.961Z,7
2023-02-27T04:12:29.797Z,9
2023-02-27T04:13:29.805Z,7
2023-02-27T04:14:29.789Z,12
2023-02-27T04:15:29.801Z,9
2023-02-27T04:16:29.789Z,19
2023-02-27T04:17:29.804Z,8
2023-02-27T04:18:29.814Z,12
2023-02-27T04:19:29.792Z,7
2023-02-27T04:20:29.819Z,8
2023-02-27T04:21:30.190Z,7
2023-02-27T04:22:29.826Z,8
2023-02-27T04:23:29.785Z,7
2023-02-27T04:24:29.799Z,6
2023-02-27T04:25:29.796Z,7
2023-02-27T04:26:29.794Z,11
2023-02-27T04:27:29.789Z,7
2023-02-27T04:28:29.795Z,11
2023-02-27T04:29:29.793Z,8
2023-02-27T04:30:29.799Z,6
2023-02-27T04:31:30.204Z,6
2023-02-27T04:32:29.929Z,9
2023-02-27T04:33:29.802Z,7
2023-02-27T04:34:29.792Z,10
2023-02-27T04:35:29.800Z,8
2023-02-27T04:36:29.794Z,5
2023-02-27T04:37:29.796Z,7
2023-02-27T04:38:29.798Z,6
2023-02-27T04:39:29.794Z,9
2023-02-27T04:40:29.802Z,8
2023-02-27T04:41:29.923Z,8
2023-02-27T04:42:29.789Z,10
2023-02-27T04:43:29.797Z,9
2023-02-27T04:44:29.792Z,6
2023-02-27T04:45:29.824Z,13
2023-02-27T04:46:29.809Z,10
2023-02-27T04:47:29.792Z,8
2023-02-27T04:48:29.796Z,10
2023-02-27T04:49:29.798Z,4
2023-02-27T04:50:29.802Z,6
2023-02-27T04:51:29.795Z,8
2023-02-27T04:52:29.803Z,12
2023-02-27T04:53:29.818Z,12
2023-02-27T04:54:30.837Z,8
2023-02-27T04:55:29.896Z,8
2023-02-27T04:56:29.789Z,9
2023-02-27T04:57:29.811Z,6
2023-02-27T04:58:29.817Z,5
2023-02-27T04:59:29.790Z,7
2023-02-27T05:00:29.792Z,10
2023-02-27T05:01:30.145Z,10
2023-02-27T05:02:29.865Z,11
2023-02-27T05:04:29.801Z,9
2023-02-27T05:05:29.795Z,11
2023-02-27T05:06:29.785Z,13
2023-02-27T05:07:29.790Z,9
2023-02-27T05:08:29.826Z,10
2023-02-27T05:09:29.794Z,6
2023-02-27T05:10:29.789Z,15
2023-02-27T05:11:29.910Z,8
2023-02-27T05:12:29.782Z,10
2023-02-27T05:13:29.806Z,13
2023-02-27T05:14:29.790Z,11
2023-02-27T05:15:29.814Z,11
2023-02-27T05:16:29.943Z,6
2023-02-27T05:17:29.792Z,8
2023-02-27T05:18:29.783Z,6
2023-02-27T05:19:29.771Z,11
2023-02-27T05:20:29.955Z,8
2023-02-27T05:21:30.131Z,5
2023-02-27T05:22:29.817Z,10
2023-02-27T05:23:29.784Z,8
2023-02-27T05:24:29.808Z,7
2023-02-27T05:25:29.785Z,11
2023-02-27T05:26:29.777Z,7
2023-02-27T05:27:29.775Z,8
2023-02-27T05:28:29.789Z,10
2023-02-27T05:29:29.781Z,6
2023-02-27T05:30:29.782Z,12
2023-02-27T05:31:30.105Z,9
2023-02-27T05:32:29.885Z,8
2023-02-27T05:33:29.800Z,8
2023-02-27T05:34:29.775Z,9
2023-02-27T05:35:30.012Z,8
2023-02-27T05:36:29.778Z,7
2023-02-27T05:38:29.802Z,5
2023-02-27T05:39:29.778Z,8
2023-02-27T05:40:29.776Z,7
2023-02-27T05:41:29.784Z,11
2023-02-27T05:42:29.788Z,6
2023-02-27T05:43:29.776Z,8
2023-02-27T05:44:29.784Z,3
2023-02-27T05:45:29.779Z,9
2023-02-27T05:46:29.776Z,7
2023-02-27T05:47:29.773Z,7
2023-02-27T05:48:29.774Z,8
2023-02-27T05:49:29.777Z,6
2023-02-27T05:50:29.782Z,7
2023-02-27T05:51:29.917Z,6
2023-02-27T05:52:29.783Z,7
2023-02-27T05:53:29.775Z,12
2023-02-27T05:54:36.864Z,6
2023-02-27T05:55:29.773Z,6
2023-02-27T05:56:30.043Z,6
2023-02-27T05:57:29.850Z,12
2023-02-27T05:58:29.782Z,10
2023-02-27T05:59:29.775Z,8
2023-02-27T06:00:29.778Z,8
2023-02-27T06:01:29.780Z,11
2023-02-27T06:02:29.835Z,9
2023-02-27T06:03:29.839Z,9
2023-02-27T06:04:29.778Z,6
2023-02-27T06:05:29.825Z,7
2023-02-27T06:06:29.912Z,8
2023-02-27T06:07:29.775Z,8
2023-02-27T06:08:29.790Z,9
2023-02-27T06:09:29.778Z,6
2023-02-27T06:10:29.799Z,6
2023-02-27T06:11:29.781Z,8
2023-02-27T06:12:29.772Z,8
2023-02-27T06:13:29.833Z,10
2023-02-27T06:14:29.784Z,8
2023-02-27T06:15:29.778Z,7
2023-02-27T06:16:30.199Z,8
2023-02-27T06:17:29.768Z,8
2023-02-27T06:18:29.773Z,8
2023-02-27T06:19:29.768Z,7
2023-02-27T06:20:29.777Z,10
2023-02-27T06:21:29.782Z,7
2023-02-27T06:22:29.772Z,12
2023-02-27T06:23:29.773Z,12
2023-02-27T06:24:29.768Z,8
2023-02-27T06:25:29.781Z,8
2023-02-27T06:26:29.935Z,10
2023-02-27T06:27:29.773Z,5
2023-02-27T06:28:29.761Z,7
2023-02-27T06:29:29.763Z,10
2023-02-27T06:30:29.833Z,7
2023-02-27T06:31:29.773Z,9
2023-02-27T06:32:29.773Z,8
2023-02-27T06:33:29.781Z,12
2023-02-27T06:34:29.774Z,7
2023-02-27T06:35:29.766Z,8
2023-02-27T06:36:30.168Z,8
2023-02-27T06:37:29.758Z,7
2023-02-27T06:38:29.761Z,12
2023-02-27T06:39:29.788Z,11
2023-02-27T06:40:29.775Z,9
2023-02-27T06:41:29.778Z,9
2023-02-27T06:42:29.759Z,7
2023-02-27T06:43:29.779Z,9
2023-02-27T06:44:29.784Z,11
2023-02-27T06:45:29.765Z,6
2023-02-27T06:46:30.018Z,8
2023-02-27T06:47:29.772Z,10
2023-02-27T06:48:29.767Z,6
2023-02-27T06:49:29.774Z,12
2023-02-27T06:50:29.771Z,9
2023-02-27T06:51:29.790Z,6
2023-02-27T06:52:29.767Z,6
2023-02-27T06:53:29.766Z,6
2023-02-27T06:55:29.763Z,10
2023-02-27T06:56:29.866Z,7
2023-02-27T06:57:29.753Z,8
2023-02-27T06:58:29.788Z,5
2023-02-27T06:59:29.767Z,9
2023-02-27T07:00:29.816Z,8
2023-02-27T07:01:29.851Z,14
2023-02-27T07:02:29.753Z,6
2023-02-27T07:03:29.771Z,7
2023-02-27T07:04:29.823Z,6
2023-02-27T07:05:29.755Z,7
2023-02-27T07:07:32.308Z,7
2023-02-27T07:07:33.870Z,10
2023-02-27T07:08:29.766Z,6
2023-02-27T07:09:29.753Z,10
2023-02-27T07:10:29.783Z,6
2023-02-27T07:11:29.750Z,5
2023-02-27T07:12:29.792Z,9
2023-02-27T07:13:29.753Z,10
2023-02-27T07:14:29.749Z,5
2023-02-27T07:15:29.793Z,17
2023-02-27T07:16:29.878Z,12
2023-02-27T07:17:29.756Z,9
2023-02-27T07:19:29.759Z,12
2023-02-27T07:20:29.749Z,9
2023-02-27T07:21:29.750Z,16
2023-02-27T07:22:29.772Z,14
2023-02-27T07:23:29.758Z,10
2023-02-27T07:24:29.748Z,8
2023-02-27T07:25:29.757Z,10
2023-02-27T07:26:30.030Z,7
2023-02-27T07:27:29.758Z,7
2023-02-27T07:28:29.850Z,5
2023-02-27T07:29:29.778Z,6
2023-02-27T07:30:29.742Z,8
2023-02-27T07:31:29.846Z,7
2023-02-27T07:32:29.742Z,8
2023-02-27T07:33:29.777Z,11
2023-02-27T07:34:29.756Z,7
2023-02-27T07:35:29.801Z,7
2023-02-27T07:36:29.774Z,10
2023-02-27T07:37:29.751Z,7
2023-02-27T07:38:29.762Z,11
2023-02-27T07:39:29.761Z,8
2023-02-27T07:40:29.749Z,6
2023-02-27T07:41:30.918Z,6
2023-02-27T07:42:29.764Z,6
2023-02-27T07:43:29.786Z,7
2023-02-27T07:44:29.755Z,8
2023-02-27T07:45:29.752Z,5
2023-02-27T07:46:30.164Z,8
2023-02-27T07:47:29.751Z,7
2023-02-27T07:48:29.751Z,7
2023-02-27T07:49:29.752Z,10
2023-02-27T07:50:29.752Z,10
2023-02-27T07:51:29.741Z,6
2023-02-27T07:53:29.749Z,10
2023-02-27T07:54:29.765Z,7
2023-02-27T07:55:29.752Z,5
2023-02-27T07:56:30.090Z,6
2023-02-27T07:57:29.750Z,6
2023-02-27T07:58:29.773Z,6
2023-02-27T07:59:29.756Z,6
2023-02-27T08:00:29.739Z,4
2023-02-27T08:01:29.744Z,5
2023-02-27T08:02:29.810Z,6
2023-02-27T08:03:29.745Z,8
2023-02-27T08:04:29.798Z,7
2023-02-27T08:05:29.745Z,7
2023-02-27T08:06:30.186Z,6
2023-02-27T08:07:29.744Z,5
2023-02-27T08:08:29.866Z,7
2023-02-27T08:09:29.753Z,8
2023-02-27T08:10:29.774Z,7
2023-02-27T08:11:30.041Z,6
2023-02-27T08:12:29.767Z,12
2023-02-27T08:13:59.194Z,7
2023-02-27T08:14:29.889Z,6
2023-02-27T08:15:29.760Z,8
2023-02-27T08:16:30.319Z,6
2023-02-27T08:17:29.755Z,16
2023-02-27T08:18:29.763Z,6
2023-02-27T08:20:29.752Z,6
2023-02-27T08:21:30.091Z,7
2023-02-27T08:22:29.765Z,4
2023-02-27T08:23:29.751Z,4
2023-02-27T08:24:29.785Z,6
2023-02-27T08:25:29.757Z,5
2023-02-27T08:26:30.241Z,5
2023-02-27T08:27:29.756Z,3
2023-02-27T08:28:29.761Z,5
2023-02-27T08:29:29.750Z,6
2023-02-27T08:30:29.762Z,5
2023-02-27T08:31:29.800Z,8
2023-02-27T08:32:29.788Z,6
2023-02-27T08:33:29.748Z,6
2023-02-27T08:34:29.751Z,6
2023-02-27T08:35:29.743Z,5
2023-02-27T08:36:29.927Z,5
2023-02-27T08:37:29.746Z,7
2023-02-27T08:38:29.792Z,5
2023-02-27T08:39:29.757Z,4
2023-02-27T08:40:29.745Z,4
2023-02-27T08:41:29.757Z,6
2023-02-27T08:42:29.756Z,6
2023-02-27T08:43:29.760Z,8
2023-02-27T08:44:29.767Z,6
2023-02-27T08:45:29.874Z,4
2023-02-27T08:46:30.156Z,7
2023-02-27T08:47:29.758Z,5
2023-02-27T08:48:29.745Z,8
2023-02-27T08:49:29.754Z,8
2023-02-27T08:50:29.743Z,8
2023-02-27T08:51:30.109Z,6
2023-02-27T08:52:29.751Z,6
2023-02-27T08:53:29.759Z,6
2023-02-27T08:54:29.748Z,5
2023-02-27T08:55:29.743Z,8
2023-02-27T08:56:29.967Z,6
2023-02-27T08:57:29.745Z,4
2023-02-27T08:58:29.790Z,5
2023-02-27T08:59:29.756Z,5
2023-02-27T09:00:29.766Z,4
2023-02-27T09:01:30.350Z,4
2023-02-27T09:02:29.796Z,5
2023-02-27T09:03:29.768Z,5
2023-02-27T09:04:29.756Z,5
2023-02-27T09:05:29.762Z,4
2023-02-27T09:06:30.402Z,5
2023-02-27T09:07:29.760Z,3
2023-02-27T09:08:29.989Z,4
2023-02-27T09:09:29.796Z,4
2023-02-27T09:10:29.756Z,6
2023-02-27T09:11:30.332Z,4
2023-02-27T09:12:29.764Z,8
2023-02-27T09:13:29.876Z,2
2023-02-27T09:14:29.821Z,5
2023-02-27T09:15:29.764Z,2
2023-02-27T09:16:30.217Z,5
2023-02-27T09:17:29.783Z,5
2023-02-27T09:18:29.760Z,3
2023-02-27T09:19:29.852Z,3
2023-02-27T09:20:29.745Z,5
2023-02-27T09:21:29.765Z,5
2023-02-27T09:22:29.752Z,4
2023-02-27T09:23:29.762Z,4
2023-02-27T09:24:29.768Z,5
2023-02-27T09:25:29.760Z,4
2023-02-27T09:26:43.464Z,3
2023-02-27T09:27:29.748Z,5
2023-02-27T09:28:29.755Z,2
2023-02-27T09:29:29.758Z,3
2023-02-27T09:30:29.765Z,3
2023-02-27T09:31:32.883Z,4
2023-02-27T09:32:29.886Z,6
2023-02-27T09:33:29.767Z,4
2023-02-27T09:34:30.038Z,2
2023-02-27T09:35:29.932Z,3
2023-02-27T09:36:30.146Z,2
2023-02-27T09:38:29.757Z,3
2023-02-27T09:39:29.765Z,5
2023-02-27T09:40:29.871Z,8
2023-02-27T09:41:29.762Z,3
2023-02-27T09:42:29.759Z,3
2023-02-27T09:43:29.766Z,3
2023-02-27T09:44:44.884Z,3
2023-02-27T09:45:29.766Z,4
2023-02-27T09:46:29.962Z,4
2023-02-27T09:47:29.793Z,3
2023-02-27T09:48:29.762Z,3
2023-02-27T09:49:29.756Z,2
2023-02-27T09:50:29.752Z,4
2023-02-27T09:51:30.052Z,4
2023-02-27T09:52:29.759Z,6
2023-02-27T09:53:29.769Z,5
2023-02-27T09:55:29.757Z,5
2023-02-27T09:56:30.018Z,5
2023-02-27T09:57:29.762Z,4
2023-02-27T09:58:29.762Z,2
2023-02-27T09:59:29.769Z,4
2023-02-27T10:00:29.764Z,4
2023-02-27T10:01:30.211Z,5
2023-02-27T10:02:29.943Z,3
2023-02-27T10:03:29.786Z,2
2023-02-27T10:04:29.768Z,1
2023-02-27T10:05:29.853Z,3
2023-02-27T10:06:30.388Z,4
2023-02-27T10:07:29.755Z,3
2023-02-27T10:08:29.768Z,3
2023-02-27T10:09:29.787Z,3
2023-02-27T10:10:29.769Z,2
2023-02-27T10:11:29.782Z,2
2023-02-27T10:12:29.780Z,4
2023-02-27T10:13:29.786Z,4
2023-02-27T10:14:29.800Z,2
2023-02-27T10:15:29.768Z,2
2023-02-27T10:16:30.201Z,3
2023-02-27T10:17:29.775Z,2
2023-02-27T10:18:30.988Z,4
2023-02-27T10:20:29.768Z,3
2023-02-27T10:21:31.161Z,4
2023-02-27T10:22:29.768Z,4
2023-02-27T10:23:29.772Z,6
2023-02-27T10:24:29.802Z,5
2023-02-27T10:25:32.017Z,4
2023-02-27T10:26:29.775Z,3
2023-02-27T10:27:29.769Z,2
2023-02-27T10:28:29.790Z,5
2023-02-27T10:29:29.785Z,2
2023-02-27T10:30:32.321Z,4
2023-02-27T10:31:30.312Z,3
2023-02-27T10:32:29.791Z,4
2023-02-27T10:33:29.801Z,4
2023-02-27T10:34:29.769Z,3
2023-02-27T10:35:29.828Z,2
2023-02-27T10:37:29.786Z,2
2023-02-27T10:38:29.804Z,8
2023-02-27T10:39:29.771Z,3
2023-02-27T10:40:29.773Z,6
2023-02-27T10:41:30.203Z,3
2023-02-27T10:42:29.777Z,3
2023-02-27T10:43:29.822Z,5
2023-02-27T10:44:29.802Z,4
2023-02-27T10:45:29.782Z,2
2023-02-27T10:46:30.150Z,2
2023-02-27T10:47:29.785Z,1
2023-02-27T10:48:29.781Z,2
2023-02-27T10:49:29.855Z,3
2023-02-27T10:50:29.773Z,4
2023-02-27T10:51:30.048Z,3
2023-02-27T10:52:29.768Z,2
2023-02-27T10:53:29.774Z,3
2023-02-27T10:54:29.766Z,2
2023-02-27T10:55:29.766Z,2
2023-02-27T10:56:30.106Z,2
2023-02-27T10:57:29.783Z,3
2023-02-27T10:58:29.765Z,5
2023-02-27T10:59:29.800Z,2
2023-02-27T11:00:29.796Z,3
2023-02-27T11:01:30.160Z,3
2023-02-27T11:02:29.771Z,4
2023-02-27T11:03:29.808Z,4
2023-02-27T11:04:29.847Z,2
2023-02-27T11:05:29.799Z,4
2023-02-27T11:06:29.824Z,5
2023-02-27T11:07:29.809Z,1
2023-02-27T11:08:29.906Z,3
2023-02-27T11:09:29.763Z,4
2023-02-27T11:10:29.772Z,4
2023-02-27T11:11:29.969Z,3
2023-02-27T11:12:29.767Z,4
2023-02-27T11:13:29.774Z,4
2023-02-27T11:14:29.843Z,4
2023-02-27T11:15:29.906Z,3
2023-02-27T11:16:29.835Z,4
2023-02-27T11:17:29.795Z,2
2023-02-27T11:18:29.786Z,5
2023-02-27T11:19:29.780Z,3
2023-02-27T11:20:29.866Z,4
2023-02-27T11:21:30.361Z,3
2023-02-27T11:22:29.787Z,2
2023-02-27T11:23:29.772Z,3
2023-02-27T11:24:29.780Z,13
2023-02-27T11:25:29.786Z,5
2023-02-27T11:26:29.770Z,2
2023-02-27T11:27:29.773Z,2
2023-02-27T11:28:29.810Z,5
2023-02-27T11:29:29.771Z,2
2023-02-27T11:30:29.798Z,2
2023-02-27T11:31:30.215Z,3
2023-02-27T11:32:29.772Z,2
2023-02-27T11:33:29.778Z,3
2023-02-27T11:34:29.779Z,3
2023-02-27T11:35:29.896Z,4
2023-02-27T11:36:29.771Z,2
2023-02-27T11:37:29.791Z,5
2023-02-27T11:38:29.783Z,2
2023-02-27T11:39:29.773Z,2
2023-02-27T11:40:29.782Z,1
2023-02-27T11:41:30.054Z,4
2023-02-27T11:42:29.772Z,3
2023-02-27T11:43:29.778Z,2
2023-02-27T11:44:43.212Z,2
2023-02-27T11:46:11.913Z,2
2023-02-27T11:46:46.471Z,2
2023-02-27T11:47:29.809Z,4
2023-02-27T11:48:29.782Z,2
2023-02-27T11:49:29.781Z,3
2023-02-27T11:50:29.788Z,5
2023-02-27T11:51:29.994Z,4
2023-02-27T11:52:29.789Z,3
2023-02-27T11:53:29.772Z,5
2023-02-27T11:54:29.771Z,1
2023-02-27T11:55:29.775Z,3
2023-02-27T11:56:29.779Z,3
2023-02-27T11:57:29.774Z,4
2023-02-27T11:58:29.778Z,4
2023-02-27T11:59:29.782Z,7
2023-02-27T12:00:29.774Z,3
2023-02-27T12:01:29.864Z,3
2023-02-27T12:02:29.820Z,4
2023-02-27T12:03:29.782Z,3
2023-02-27T12:04:29.797Z,3
2023-02-27T12:06:29.791Z,5
2023-02-27T12:07:29.777Z,4
2023-02-27T12:08:29.775Z,4
2023-02-27T12:09:29.774Z,1
2023-02-27T12:10:29.860Z,4
2023-02-27T12:11:30.010Z,2
2023-02-27T12:12:29.795Z,2
2023-02-27T12:13:29.783Z,5
2023-02-27T12:14:29.863Z,3
2023-02-27T12:15:29.788Z,4
2023-02-27T12:16:32.691Z,4
2023-02-27T12:17:29.778Z,5
2023-02-27T12:18:29.783Z,3
2023-02-27T12:19:29.786Z,4
2023-02-27T12:20:30.182Z,4
2023-02-27T12:21:29.775Z,2
2023-02-27T12:22:29.798Z,3
2023-02-27T12:23:29.778Z,2
2023-02-27T12:24:29.776Z,4
2023-02-27T12:25:29.775Z,3
2023-02-27T12:26:30.243Z,2
2023-02-27T12:27:29.778Z,4
2023-02-27T12:28:29.791Z,2
2023-02-27T12:29:29.769Z,2
2023-02-27T12:30:29.773Z,3
2023-02-27T12:31:30.094Z,4
2023-02-27T12:32:29.908Z,4
2023-02-27T12:33:29.782Z,3
2023-02-27T12:34:29.772Z,3
2023-02-27T12:35:29.801Z,5
2023-02-27T12:36:29.777Z,5
2023-02-27T12:37:29.780Z,4
2023-02-27T12:38:29.777Z,3
2023-02-27T12:39:29.774Z,2
2023-02-27T12:40:29.768Z,3
2023-02-27T12:41:29.948Z,2
2023-02-27T12:42:29.788Z,3
2023-02-27T12:43:29.778Z,3
2023-02-27T12:44:29.784Z,4
2023-02-27T12:45:29.810Z,3
2023-02-27T12:46:29.772Z,3
2023-02-27T12:47:29.774Z,3
2023-02-27T12:48:29.781Z,2
2023-02-27T12:49:29.777Z,5
2023-02-27T12:50:29.769Z,4
2023-02-27T12:51:30.130Z,5
2023-02-27T12:52:29.827Z,4
2023-02-27T12:53:29.811Z,2
2023-02-27T12:54:29.773Z,3
2023-02-27T12:55:29.776Z,2
2023-02-27T12:56:29.763Z,2
2023-02-27T12:57:29.773Z,3
2023-02-27T12:58:29.801Z,7
2023-02-27T12:59:29.771Z,2
2023-02-27T13:00:29.775Z,4
2023-02-27T13:01:30.286Z,2
2023-02-27T13:02:29.780Z,3
2023-02-27T13:03:29.778Z,3
2023-02-27T13:04:29.795Z,3
2023-02-27T13:05:29.772Z,5
2023-02-27T13:06:29.790Z,1
2023-02-27T13:07:29.779Z,3
2023-02-27T13:08:29.784Z,4
2023-02-27T13:09:29.780Z,2
2023-02-27T13:10:29.802Z,4
2023-02-27T13:11:30.171Z,5
2023-02-27T13:12:29.783Z,4
2023-02-27T13:13:29.787Z,2
2023-02-27T13:14:29.807Z,3
2023-02-27T13:16:29.843Z,3
2023-02-27T13:17:29.856Z,3
2023-02-27T13:18:29.784Z,2
2023-02-27T13:19:29.777Z,5
2023-02-27T13:20:29.780Z,3
2023-02-27T13:21:30.087Z,5
2023-02-27T13:22:29.775Z,3
2023-02-27T13:23:29.778Z,3
2023-02-27T13:24:29.803Z,4
2023-02-27T13:25:30.867Z,2
2023-02-27T13:26:29.830Z,2
2023-02-27T13:27:29.797Z,3
2023-02-27T13:28:29.780Z,5
2023-02-27T13:29:29.826Z,4
2023-02-27T13:30:29.777Z,4
2023-02-27T13:31:30.141Z,4
2023-02-27T13:32:42.744Z,5
2023-02-27T13:33:29.790Z,4
2023-02-27T13:34:29.781Z,7
2023-02-27T13:35:29.833Z,4
2023-02-27T13:36:29.775Z,6
2023-02-27T13:37:29.843Z,5
2023-02-27T13:38:29.776Z,4
2023-02-27T13:39:29.800Z,2
2023-02-27T13:40:29.776Z,4
2023-02-27T13:41:30.158Z,5
2023-02-27T13:42:29.793Z,4
2023-02-27T13:43:29.779Z,3
2023-02-27T13:44:29.801Z,3
2023-02-27T13:45:29.776Z,2
2023-02-27T13:46:29.801Z,3
2023-02-27T13:47:29.826Z,5
2023-02-27T13:48:29.781Z,3
2023-02-27T13:49:30.108Z,3
2023-02-27T13:50:29.795Z,2
2023-02-27T13:51:29.774Z,3
2023-02-27T13:52:29.783Z,3
2023-02-27T13:53:29.794Z,3
2023-02-27T13:54:29.779Z,5
2023-02-27T13:55:29.800Z,4
2023-02-27T13:56:29.774Z,1
2023-02-27T13:58:29.786Z,3
2023-02-27T13:59:29.774Z,8
2023-02-27T14:00:29.814Z,2
2023-02-27T14:01:30.285Z,3
2023-02-27T14:02:29.845Z,2
2023-02-27T14:03:29.771Z,5
2023-02-27T14:04:29.789Z,5
2023-02-27T14:05:29.783Z,3
2023-02-27T14:06:29.793Z,2
2023-02-27T14:07:29.785Z,4
2023-02-27T14:08:29.776Z,3
2023-02-27T14:10:29.768Z,3
2023-02-27T14:11:30.024Z,3
2023-02-27T14:12:42.593Z,2
2023-02-27T14:13:29.781Z,5
2023-02-27T14:14:29.870Z,4
2023-02-27T14:15:29.787Z,3
2023-02-27T14:16:29.762Z,5
2023-02-27T14:17:29.767Z,3
2023-02-27T14:18:34.259Z,7
2023-02-27T14:19:29.783Z,5
2023-02-27T14:20:29.767Z,2
2023-02-27T14:21:29.876Z,4
2023-02-27T14:22:29.772Z,2
2023-02-27T14:23:29.778Z,4
2023-02-27T14:24:29.773Z,2
2023-02-27T14:25:36.853Z,4
2023-02-27T14:26:29.812Z,4
2023-02-27T14:27:29.786Z,2
2023-02-27T14:28:29.773Z,7
2023-02-27T14:29:29.768Z,3
2023-02-27T14:30:29.786Z,4
2023-02-27T14:31:30.398Z,3
2023-02-27T14:32:29.769Z,2
2023-02-27T14:34:29.771Z,3
2023-02-27T14:35:29.971Z,4
2023-02-27T14:36:29.837Z,5
2023-02-27T14:37:29.767Z,4
2023-02-27T14:38:29.765Z,4
2023-02-27T14:39:29.779Z,5
2023-02-27T14:40:30.569Z,7
2023-02-27T14:41:30.085Z,6
2023-02-27T14:42:29.858Z,5
2023-02-27T14:43:29.764Z,5
2023-02-27T14:44:29.783Z,4
2023-02-27T14:45:29.842Z,3
2023-02-27T14:46:29.899Z,3
2023-02-27T14:47:29.801Z,3
2023-02-27T14:48:29.755Z,3
2023-02-27T14:49:29.801Z,4
2023-02-27T14:50:29.850Z,4
2023-02-27T14:51:30.048Z,4
2023-02-27T14:52:29.832Z,5
2023-02-27T14:53:29.770Z,4
2023-02-27T14:54:29.874Z,3
2023-02-27T14:55:30.021Z,5
2023-02-27T14:56:30.069Z,5
2023-02-27T14:57:29.763Z,5
2023-02-27T14:58:29.763Z,3
2023-02-27T14:59:29.782Z,2
2023-02-27T15:00:29.767Z,5
2023-02-27T15:01:30.172Z,4
2023-02-27T15:02:29.770Z,6
2023-02-27T15:03:29.767Z,8
2023-02-27T15:04:29.911Z,5
2023-02-27T15:05:30.556Z,5
2023-02-27T15:06:30.138Z,7
2023-02-27T15:07:29.780Z,3
2023-02-27T15:08:29.766Z,2
2023-02-27T15:09:29.770Z,4
2023-02-27T15:10:29.789Z,4
2023-02-27T15:11:30.082Z,4
2023-02-27T15:12:29.792Z,4